Latest Coastal Weather Observations for Hobart Airport

IDT60701

Issued at 12:33 pm EDT Sunday 26 March 2017 (issued every 10 minutes, with the page automatically refreshed every 10 minutes)

About coastal observations | Map of coastal stations | Coastal observations for TAS | Marine services | Other Formats
Station Details ID: 094008 Name: HOBART AIRPORT Lat: -42.83 Lon: 147.50 Height: 4.0 m
Data from the previous 72 hours. | See also: Recent months at Hobart Airport
Date/Time
EDT
Temp
°C
Wind Pressure Rain since
9am
mm
Weather Cloud Vis
km
Sea
Height
m
Swell
Dir  Spd
kts
Gust
kts
hPa Trend Height
m
Period
s
Dir
26/12:00pm 20.6 ESE 5 8 1015.8 R 0.0 Haze Mostly clear 30 - - - -
26/11:30am 19.1 WSW 3 5 1016.1 - 0.0 - Mostly clear 10 - - - -
26/11:00am 17.4 NNW 4 5 1016.2 - 0.0 - Mostly clear 10 - - - -
26/10:30am 16.1 CALM 0 0 1016.3 - 0.0 - Mostly clear 10 - - - -
26/10:00am 15.3 NNE 4 4 1016.1 - 0.0 - Mostly clear 10 - - - -
26/09:30am 14.5 NW 5 6 1016.0 - 0.0 - Mostly clear 10 - - - -
26/09:00am 14.2 NW 5 7 1015.7 R 0.0 Haze Partly cloudy 30 - - - -
26/08:30am 13.1 NW 6 7 1015.5 - 0.0 - Mostly clear 10 - - - -
26/08:00am 12.3 NW 5 7 1015.1 - 0.0 - Mostly clear 10 - - - -
26/07:30am 11.6 NW 6 7 1014.7 - 0.0 Shallow fog Mostly clear 10 - - - -
26/07:00am 11.9 NW 5 7 1014.4 - 0.0 - Mostly clear 10 - - - -
26/06:30am 11.6 WNW 3 5 1014.0 - 0.0 Shallow fog Mostly clear 10 - - - -
26/06:00am 10.3 WNW 3 4 1014.0 R 0.0 Shallow fog Mostly clear 30 - - - -
26/05:30am 11.3 W 6 6 1014.0 - 0.0 - Mostly clear 10 - - - -
26/05:00am 11.6 NW 5 6 1014.0 - 0.0 - Mostly clear 10 - - - -
26/04:30am 12.2 WNW 4 5 1013.8 - 0.0 - Mostly clear 10 - - - -
26/04:00am 12.5 NNW 4 6 1014.0 - 0.0 - Mostly clear 10 - - - -
26/03:30am 12.4 WNW 6 7 1014.1 - 0.0 - Mostly clear 10 - - - -
26/03:00am 12.1 NNW 4 5 1014.0 R 0.0 Fine Mostly clear 40 - - - -
26/02:30am 13.0 WNW 4 5 1014.1 - 0.0 - Mostly clear 10 - - - -
26/02:00am 13.7 NW 7 8 1014.1 - 0.0 - Mostly clear 10 - - - -
26/01:30am 13.9 NW 7 9 1014.1 - 0.0 - Mostly clear 10 - - - -
26/01:00am 13.6 CALM 0 2 1014.0 - 0.0 - Mostly clear 10 - - - -
26/12:30am 14.0 WNW 3 6 1013.9 - 0.0 - Mostly clear 10 - - - -
26/12:00am 14.7 NW 7 8 1014.0 R 0.0 Fine Mostly clear 40 - - - -
 
Date/Time
EDT
Temp
°C
Wind Pressure Rain since
9am
mm
Weather Cloud Vis
km
Sea
Height
m
Swell
Dir  Spd
kts
Gust
kts
hPa Trend Height
m
Period
s
Dir
25/11:30pm 14.7 NW 5 6 1014.0 - 0.0 - Mostly clear 10 - - - -
25/11:00pm 15.4 CALM 0 3 1013.9 - 0.0 - Mostly clear 10 - - - -
25/10:30pm 16.0 NW 5 6 1013.8 - 0.0 - Mostly clear 10 - - - -
25/10:00pm 16.6 NW 5 7 1013.7 - 0.0 - Mostly clear 10 - - - -
25/09:30pm 17.0 NNW 5 7 1013.4 - 0.0 - Mostly clear 10 - - - -
25/09:00pm 17.7 NNW 5 6 1013.2 F 0.0 Fine Mostly cloudy 40 - - - -
25/08:30pm 18.2 NNW 6 8 1012.9 - 0.0 - Mostly clear 10 - - - -
25/08:00pm 18.4 NNW 5 6 1012.7 - 0.0 - Mostly clear 10 - - - -
25/07:30pm 18.7 N 6 8 1012.6 - 0.0 - Mostly clear 10 - - - -
25/07:00pm 19.1 N 2 4 1012.3 - 0.0 - Mostly clear 10 - - - -
25/06:30pm 19.9 SSE 1 4 1012.1 - 0.0 - Mostly clear 10 - - - -
25/06:00pm 20.2 NW 5 6 1012.0 F 0.0 Fine Mostly cloudy 40 - - - -
25/05:30pm 20.5 ESE 4 6 1011.9 - 0.0 - Mostly clear 10 - - - -
25/05:00pm 20.3 SE 6 7 1011.8 - 0.0 - Mostly clear 10 - - - -
25/04:30pm 20.5 SSE 5 8 1012.0 - 0.0 - Partly cloudy 10 - - - -
25/04:00pm 20.1 SE 6 7 1012.2 - 0.0 - Mostly clear 10 - - - -
25/03:30pm 19.8 ESE 5 7 1012.4 - 0.0 - Mostly clear 10 - - - -
25/03:00pm 19.8 NE 3 6 1012.6 F 0.0 Fine Mostly cloudy 40 - - - -
25/02:30pm 19.2 NNE 4 6 1012.8 - 0.0 - Mostly clear 10 - - - -
25/02:00pm 19.1 NNE 4 8 1013.1 - 0.0 - Mostly clear 10 - - - -
25/01:30pm 18.8 N 3 4 1013.5 - 0.0 - Mostly clear 10 - - - -
25/01:00pm 17.5 NNW 4 6 1013.9 - 0.0 - Cloudy 10 - - - -
25/12:30pm 17.0 NW 5 6 1014.4 - 0.0 - Partly cloudy 10 - - - -
25/12:00pm 16.5 NW 6 8 1014.9 F 0.0 Fine Cloudy 40 - - - -
25/11:30am 15.8 NW 7 9 1015.3 - 0.0 - Mostly clear 10 - - - -
25/11:00am 15.3 NW 5 7 1015.3 - 0.0 - Mostly clear 10 - - - -
25/10:30am 14.8 NW 6 8 1015.6 - 0.0 - Mostly clear 10 - - - -
25/10:00am 14.4 NNW 7 9 1015.6 - 0.0 - Mostly clear 10 - - - -
25/09:30am 14.4 NW 7 9 1015.4 - 0.0 - Mostly clear 10 - - - -
25/09:00am 14.3 NNW 5 8 1015.4 F 0.0 Recent precip. Cloudy 40 - - - -
25/08:30am 13.8 NW 8 9 1015.4 - 0.0 Rain Mostly clear 10 - - - -
25/08:00am 14.2 NNW 5 7 1015.5 - 0.0 - Mostly clear 10 - - - -
25/07:30am 14.0 NNW 6 8 1015.7 - 0.0 - Mostly clear 10 - - - -
25/07:00am 13.7 NW 5 7 1015.8 - 0.0 - Mostly clear 10 - - - -
25/06:30am 13.2 NNW 1 4 1015.8 - 0.0 - Mostly clear 10 - - - -
25/06:00am 13.2 N 4 5 1015.7 F 0.0 Fine Cloudy 40 - - - -
25/05:30am 13.4 NNW 5 7 1016.1 - 0.0 - Mostly clear 10 - - - -
25/05:00am 13.4 NNW 5 8 1016.3 - 0.0 - Mostly clear 10 - - - -
25/04:30am 13.4 NW 6 9 1016.7 - 0.0 - Mostly clear 10 - - - -
25/04:00am 13.8 N 7 11 1017.0 - 0.0 - Mostly clear 10 - - - -
25/03:30am 14.1 NNE 9 13 1017.2 - 0.0 - Mostly clear 10 - - - -
25/03:00am 14.3 NNE 9 14 1017.8 F 0.0 Fine Cloudy 40 - - - -
25/02:30am 14.2 N 9 14 1018.4 - 0.0 - Mostly cloudy 10 - - - -
25/02:00am 14.0 NNE 8 11 1018.4 - 0.0 - Mostly cloudy 10 - - - -
25/01:30am 13.8 NNE 9 12 1018.6 - 0.0 - Mostly clear 10 - - - -
25/01:00am 13.8 NNE 9 13 1019.1 - 0.0 - Mostly clear 10 - - - -
25/12:30am 13.6 NNE 6 11 1019.4 - 0.0 - Mostly clear 10 - - - -
25/12:00am 13.5 N 2 5 1019.8 F 0.0 Fine Cloudy 40 - - - -
 
Date/Time
EDT
Temp
°C
Wind Pressure Rain since
9am
mm
Weather Cloud Vis
km
Sea
Height
m
Swell
Dir  Spd
kts
Gust
kts
hPa Trend Height
m
Period
s
Dir
24/11:30pm 13.5 NNE 8 12 1020.2 - 0.0 - Mostly clear 10 - - - -
24/11:00pm 13.9 NNE 7 11 1020.3 - 0.0 - Mostly clear 10 - - - -
24/10:30pm 14.1 NNE 10 15 1020.6 - 0.0 - Mostly clear 10 - - - -
24/10:00pm 13.8 NNE 7 10 1020.7 - 0.0 - Mostly clear 10 - - - -
24/09:30pm 14.1 NNE 9 14 1020.7 - 0.0 - Mostly clear 10 - - - -
24/09:00pm 14.3 NNE 7 10 1020.8 F 0.0 Fine Cloudy 40 - - - -
24/08:30pm 14.6 NE 7 9 1020.8 - 0.0 - Mostly clear 10 - - - -
24/08:00pm 14.7 ENE 8 11 1020.6 - 0.0 - Mostly clear 10 - - - -
24/07:30pm 15.0 NNE 9 11 1021.0 - 0.0 - Mostly clear 10 - - - -
24/07:00pm 15.4 NNE 6 9 1021.1 - 0.0 - Mostly clear 10 - - - -
24/06:30pm 15.7 E 6 9 1021.0 - 0.0 - Mostly clear 10 - - - -
24/06:00pm 16.0 E 7 11 1020.7 F 0.0 Fine Mostly cloudy 40 - - - -
24/05:30pm 16.1 ESE 7 10 1020.9 - 0.0 - Mostly clear 10 - - - -
24/05:00pm 16.5 ESE 8 11 1020.9 - 0.0 - Mostly clear 10 - - - -
24/04:30pm 17.3 ESE 10 14 1021.1 - 0.0 - Mostly clear 10 - - - -
24/04:00pm 17.9 ESE 8 13 1021.3 - 0.0 - Mostly clear 10 - - - -
24/03:30pm 18.1 SE 10 14 1021.8 - 0.0 - Mostly clear 10 - - - -
24/03:00pm 18.2 SE 12 15 1022.5 F 0.0 Fine Mostly cloudy 40 - - - -
24/02:30pm 18.3 SE 10 15 1022.9 - 0.0 - Mostly clear 10 - - - -
24/02:00pm 17.9 SE 10 14 1023.1 - 0.0 - Mostly clear 10 - - - -
24/01:30pm 18.7 ENE 4 10 1023.5 - 0.0 - Mostly clear 10 - - - -
24/01:00pm 18.1 NNE 5 8 1023.7 - 0.0 - Mostly clear 10 - - - -
24/12:30pm 17.1 WNW 6 9 1024.0 - 0.0 - Mostly clear 10 - - - -
24/12:00pm 17.0 NNW 5 9 1024.6 F 0.0 Fine Mostly clear 40 - - - -
24/11:30am 16.2 NW 6 8 1025.1 - 0.0 - Mostly clear 10 - - - -
24/11:00am 14.8 WNW 6 8 1025.3 - 0.0 - Mostly clear 10 - - - -
24/10:30am 13.7 NW 7 8 1025.5 - 0.0 - Mostly clear 10 - - - -
24/10:00am 12.3 NW 7 8 1025.7 - 0.0 - Mostly clear 10 - - - -
24/09:30am 11.3 WNW 8 10 1025.7 - 0.0 - Mostly clear 10 - - - -
24/09:00am 10.3 WNW 9 11 1025.7 R 0.0 Fine Mostly clear 40 - - - -
24/08:30am 9.4 WNW 8 10 1025.5 - 0.0 - Mostly clear 10 - - - -
24/08:00am 8.9 NW 8 9 1025.1 - 0.0 - Mostly clear 10 - - - -
24/07:30am 8.5 NW 7 8 1025.0 - 0.0 Shallow fog Mostly clear 10 - - - -
24/07:00am 8.6 NW 5 7 1025.0 - 0.0 - Mostly clear 10 - - - -
24/06:44am 8.3 WNW 5 5 1024.7 - 0.0 Shallow fog Mostly clear 10 - - - -
24/06:30am 8.7 NW 6 7 1024.7 - 0.0 - Mostly clear 10 - - - -
24/06:00am 9.0 NW 7 8 1024.7 F 0.0 Fine Mostly clear 40 - - - -
24/05:30am 9.1 NW 7 8 1024.7 - 0.0 - Mostly clear 10 - - - -
24/05:00am 9.4 NW 7 7 1024.7 - 0.0 - Mostly clear 10 - - - -
24/04:30am 9.6 NW 1 4 1024.8 - 0.0 - Mostly clear 10 - - - -
24/04:00am 9.9 NW 6 8 1024.8 - 0.0 - Mostly clear 10 - - - -
24/03:30am 9.9 NW 6 7 1024.6 - 0.0 - Mostly clear 10 - - - -
24/03:00am 10.1 NW 8 9 1024.9 R 0.0 Fine Mostly clear 40 - - - -
24/02:30am 10.5 WNW 6 8 1024.6 - 0.0 - Mostly clear 10 - - - -
24/02:00am 10.8 N 1 4 1024.6 - 0.0 - Mostly clear 10 - - - -
24/01:30am 11.1 NNW 3 3 1024.6 - 0.0 - Mostly clear 10 - - - -
24/01:00am 10.7 NW 3 5 1025.3 - 0.0 - Mostly clear 10 - - - -
24/12:30am 11.8 NNE 4 5 1025.4 - 0.0 - Mostly clear 10 - - - -
24/12:00am 12.0 ENE 4 5 1025.5 F 0.0 Fine Partly cloudy 40 - - - -
 
Date/Time
EDT
Temp
°C
Wind Pressure Rain since
9am
mm
Weather Cloud Vis
km
Sea
Height
m
Swell
Dir  Spd
kts
Gust
kts
hPa Trend Height
m
Period
s
Dir
23/11:30pm 12.6 ESE 5 6 1026.1 - 0.0 - Mostly clear 10 - - - -
23/11:00pm 13.7 S 5 5 1026.8 - 0.0 - Mostly clear 10 - - - -
23/10:30pm 13.7 E 4 5 1026.5 - 0.0 - Mostly clear 10 - - - -
23/10:00pm 14.4 SE 4 5 1026.8 - 0.0 - Mostly clear 10 - - - -
23/09:30pm 14.7 E 3 5 1026.6 - 0.0 - Mostly clear 10 - - - -
23/09:00pm 14.6 CALM 0 4 1026.4 R 0.0 Fine Mostly cloudy 40 - - - -
23/08:30pm 14.6 ENE 5 6 1026.0 - 0.0 - Mostly clear 10 - - - -
23/08:00pm 14.6 E 6 8 1025.5 - 0.0 - Mostly clear 10 - - - -
23/07:30pm 15.2 SSE 8 12 1025.3 - 0.0 - Mostly clear 10 - - - -
23/07:00pm 15.9 SE 5 5 1025.2 - 0.0 - Mostly clear 10 - - - -
23/06:30pm 16.6 SE 6 8 1025.0 - 0.0 - Mostly clear 10 - - - -
23/06:00pm 16.8 SE 5 8 1024.9 F 0.0 Fine Mostly clear 35 - - - -
23/05:30pm 16.8 SE 6 8 1024.9 - 0.0 - Mostly clear 10 - - - -
23/05:00pm 17.4 SSE 8 9 1024.8 - 0.0 - Mostly clear 10 - - - -
23/04:30pm 16.7 SE 8 10 1024.9 - 0.0 - Mostly clear 10 - - - -
23/04:00pm 16.7 SE 8 11 1024.9 - 0.0 - Mostly clear 10 - - - -
23/03:30pm 17.0 SE 8 11 1025.0 - 0.0 - Mostly clear 10 - - - -
23/03:00pm 16.7 SSE 7 9 1025.3 F 0.0 Fine Mostly cloudy 30 - - - -
23/02:30pm 16.7 SSE 6 8 1025.7 - 0.0 - Mostly clear 10 - - - -
23/02:00pm 16.3 SE 5 8 1026.0 - 0.0 - Mostly clear 10 - - - -
23/01:30pm 15.8 SE 3 7 1026.3 - 0.0 - Mostly clear 10 - - - -
23/01:00pm 15.6 SSE 6 8 1026.7 - 0.0 - Mostly clear 10 - - - -

Other Formats:

Comma delimited format used in spreadsheet applications
http://www.bom.gov.au/fwo/IDT60701/IDT60701.94975.axf

JavaScript Object Notation format (JSON) in row-major order
http://www.bom.gov.au/fwo/IDT60701/IDT60701.94975.json